sensor_id;sensor_type;location;lat;lon;timestamp;temperature;humidity
4374;DHT22;2201;51.100;6.814;2023-02-22T00:01:41;6.40;98.20
4374;DHT22;2201;51.100;6.814;2023-02-22T00:04:16;6.40;98.20
4374;DHT22;2201;51.100;6.814;2023-02-22T00:06:46;6.40;98.20
4374;DHT22;2201;51.100;6.814;2023-02-22T00:09:14;6.50;98.20
4374;DHT22;2201;51.100;6.814;2023-02-22T00:11:45;6.50;98.20
4374;DHT22;2201;51.100;6.814;2023-02-22T00:14:13;6.50;98.20
4374;DHT22;2201;51.100;6.814;2023-02-22T00:16:40;6.50;98.20
4374;DHT22;2201;51.100;6.814;2023-02-22T00:19:07;6.50;98.20
4374;DHT22;2201;51.100;6.814;2023-02-22T00:21:36;6.60;98.20
4374;DHT22;2201;51.100;6.814;2023-02-22T00:24:03;6.60;98.20
4374;DHT22;2201;51.100;6.814;2023-02-22T00:26:48;6.60;98.20
4374;DHT22;2201;51.100;6.814;2023-02-22T00:29:15;6.60;98.20
4374;DHT22;2201;51.100;6.814;2023-02-22T00:31:42;6.70;98.20
4374;DHT22;2201;51.100;6.814;2023-02-22T00:34:09;6.70;98.20
4374;DHT22;2201;51.100;6.814;2023-02-22T00:36:37;6.70;98.20
4374;DHT22;2201;51.100;6.814;2023-02-22T00:39:04;6.70;98.20
4374;DHT22;2201;51.100;6.814;2023-02-22T00:41:32;6.60;98.20
4374;DHT22;2201;51.100;6.814;2023-02-22T00:43:59;6.60;98.20
4374;DHT22;2201;51.100;6.814;2023-02-22T00:46:26;6.60;98.20
4374;DHT22;2201;51.100;6.814;2023-02-22T00:48:53;6.60;98.20
4374;DHT22;2201;51.100;6.814;2023-02-22T00:51:20;6.60;98.20
4374;DHT22;2201;51.100;6.814;2023-02-22T00:53:48;6.60;98.20
4374;DHT22;2201;51.100;6.814;2023-02-22T00:56:15;6.60;98.20
4374;DHT22;2201;51.100;6.814;2023-02-22T00:58:42;6.60;98.20
4374;DHT22;2201;51.100;6.814;2023-02-22T01:01:10;6.50;98.20
4374;DHT22;2201;51.100;6.814;2023-02-22T01:03:37;6.50;98.20
4374;DHT22;2201;51.100;6.814;2023-02-22T01:06:06;6.50;98.20
4374;DHT22;2201;51.100;6.814;2023-02-22T01:08:33;6.50;98.20
4374;DHT22;2201;51.100;6.814;2023-02-22T01:11:01;6.50;98.20
4374;DHT22;2201;51.100;6.814;2023-02-22T01:13:29;6.50;98.20
4374;DHT22;2201;51.100;6.814;2023-02-22T01:15:55;6.50;98.20
4374;DHT22;2201;51.100;6.814;2023-02-22T01:18:22;6.50;98.20
4374;DHT22;2201;51.100;6.814;2023-02-22T01:20:50;6.50;98.20
4374;DHT22;2201;51.100;6.814;2023-02-22T01:23:17;6.50;98.20
4374;DHT22;2201;51.100;6.814;2023-02-22T01:25:46;6.50;98.20
4374;DHT22;2201;51.100;6.814;2023-02-22T01:28:14;6.50;98.20
4374;DHT22;2201;51.100;6.814;2023-02-22T01:30:42;6.50;98.20
4374;DHT22;2201;51.100;6.814;2023-02-22T01:33:09;6.60;98.20
4374;DHT22;2201;51.100;6.814;2023-02-22T01:35:39;6.60;98.20
4374;DHT22;2201;51.100;6.814;2023-02-22T01:38:06;6.60;98.20
4374;DHT22;2201;51.100;6.814;2023-02-22T01:40:37;6.50;98.20
4374;DHT22;2201;51.100;6.814;2023-02-22T01:43:17;6.50;98.20
4374;DHT22;2201;51.100;6.814;2023-02-22T01:45:58;6.60;98.20
4374;DHT22;2201;51.100;6.814;2023-02-22T01:48:38;6.60;98.20
4374;DHT22;2201;51.100;6.814;2023-02-22T01:51:10;6.60;98.20
4374;DHT22;2201;51.100;6.814;2023-02-22T01:53:43;6.50;98.20
4374;DHT22;2201;51.100;6.814;2023-02-22T01:56:12;6.50;98.20
4374;DHT22;2201;51.100;6.814;2023-02-22T01:58:43;6.40;98.20
4374;DHT22;2201;51.100;6.814;2023-02-22T02:01:13;6.40;98.20
4374;DHT22;2201;51.100;6.814;2023-02-22T02:03:41;6.40;98.20
4374;DHT22;2201;51.100;6.814;2023-02-22T02:06:12;6.40;98.20
4374;DHT22;2201;51.100;6.814;2023-02-22T02:08:46;6.40;98.20
4374;DHT22;2201;51.100;6.814;2023-02-22T02:11:19;6.30;98.20
4374;DHT22;2201;51.100;6.814;2023-02-22T02:13:48;6.30;98.20
4374;DHT22;2201;51.100;6.814;2023-02-22T02:16:16;6.30;98.20
4374;DHT22;2201;51.100;6.814;2023-02-22T02:18:46;6.30;98.20
4374;DHT22;2201;51.100;6.814;2023-02-22T02:21:31;6.30;98.20
4374;DHT22;2201;51.100;6.814;2023-02-22T02:24:26;6.30;98.20
4374;DHT22;2201;51.100;6.814;2023-02-22T02:27:07;6.30;98.20
4374;DHT22;2201;51.100;6.814;2023-02-22T02:29:55;6.30;98.20
4374;DHT22;2201;51.100;6.814;2023-02-22T02:32:35;6.40;98.20
4374;DHT22;2201;51.100;6.814;2023-02-22T02:35:10;6.40;98.20
4374;DHT22;2201;51.100;6.814;2023-02-22T02:37:47;6.40;98.20
4374;DHT22;2201;51.100;6.814;2023-02-22T02:40:22;6.40;98.20
4374;DHT22;2201;51.100;6.814;2023-02-22T02:42:56;6.40;98.20
4374;DHT22;2201;51.100;6.814;2023-02-22T02:45:29;6.40;98.20
4374;DHT22;2201;51.100;6.814;2023-02-22T02:48:01;6.40;98.20
4374;DHT22;2201;51.100;6.814;2023-02-22T02:50:35;6.40;98.20
4374;DHT22;2201;51.100;6.814;2023-02-22T02:53:05;6.40;98.20
4374;DHT22;2201;51.100;6.814;2023-02-22T02:55:35;6.40;98.20
4374;DHT22;2201;51.100;6.814;2023-02-22T02:58:03;6.40;98.20
4374;DHT22;2201;51.100;6.814;2023-02-22T03:00:33;6.40;98.20
4374;DHT22;2201;51.100;6.814;2023-02-22T03:03:27;6.40;98.20
4374;DHT22;2201;51.100;6.814;2023-02-22T03:09:01;6.50;98.20
4374;DHT22;2201;51.100;6.814;2023-02-22T03:11:38;6.50;98.20
4374;DHT22;2201;51.100;6.814;2023-02-22T03:14:15;6.50;98.20
4374;DHT22;2201;51.100;6.814;2023-02-22T03:16:46;6.50;98.20
4374;DHT22;2201;51.100;6.814;2023-02-22T03:19:26;6.50;98.20
4374;DHT22;2201;51.100;6.814;2023-02-22T03:21:57;6.50;98.20
4374;DHT22;2201;51.100;6.814;2023-02-22T03:24:30;6.40;98.20
4374;DHT22;2201;51.100;6.814;2023-02-22T03:27:00;6.40;98.20
4374;DHT22;2201;51.100;6.814;2023-02-22T03:29:30;6.40;98.20
4374;DHT22;2201;51.100;6.814;2023-02-22T03:32:01;6.40;98.20
4374;DHT22;2201;51.100;6.814;2023-02-22T03:34:33;6.50;98.20
4374;DHT22;2201;51.100;6.814;2023-02-22T03:37:02;6.50;98.20
4374;DHT22;2201;51.100;6.814;2023-02-22T03:39:31;6.50;98.20
4374;DHT22;2201;51.100;6.814;2023-02-22T03:42:04;6.50;98.20
4374;DHT22;2201;51.100;6.814;2023-02-22T03:44:33;6.50;98.20
4374;DHT22;2201;51.100;6.814;2023-02-22T03:47:05;6.50;98.20
4374;DHT22;2201;51.100;6.814;2023-02-22T03:49:36;6.40;98.20
4374;DHT22;2201;51.100;6.814;2023-02-22T03:52:04;6.40;98.20
4374;DHT22;2201;51.100;6.814;2023-02-22T03:54:33;6.40;98.20
4374;DHT22;2201;51.100;6.814;2023-02-22T03:57:05;6.40;98.20
4374;DHT22;2201;51.100;6.814;2023-02-22T03:59:34;6.40;98.20
4374;DHT22;2201;51.100;6.814;2023-02-22T04:02:02;6.40;98.20
4374;DHT22;2201;51.100;6.814;2023-02-22T04:04:29;6.40;98.20
4374;DHT22;2201;51.100;6.814;2023-02-22T04:06:57;6.40;98.20
4374;DHT22;2201;51.100;6.814;2023-02-22T04:09:24;6.30;98.20
4374;DHT22;2201;51.100;6.814;2023-02-22T04:11:51;6.30;98.20
4374;DHT22;2201;51.100;6.814;2023-02-22T04:14:18;6.30;98.20
4374;DHT22;2201;51.100;6.814;2023-02-22T04:16:46;6.30;98.20
4374;DHT22;2201;51.100;6.814;2023-02-22T04:19:13;6.30;98.20
4374;DHT22;2201;51.100;6.814;2023-02-22T04:21:41;6.30;98.20
4374;DHT22;2201;51.100;6.814;2023-02-22T04:24:10;6.30;98.20
4374;DHT22;2201;51.100;6.814;2023-02-22T04:26:38;6.30;98.20
4374;DHT22;2201;51.100;6.814;2023-02-22T04:29:05;6.40;98.20
4374;DHT22;2201;51.100;6.814;2023-02-22T04:31:33;6.30;98.20
4374;DHT22;2201;51.100;6.814;2023-02-22T04:34:01;6.30;98.20
4374;DHT22;2201;51.100;6.814;2023-02-22T04:36:29;6.30;98.20
4374;DHT22;2201;51.100;6.814;2023-02-22T04:38:58;6.30;98.20
4374;DHT22;2201;51.100;6.814;2023-02-22T04:41:27;6.40;98.20
4374;DHT22;2201;51.100;6.814;2023-02-22T04:43:56;6.30;98.20
4374;DHT22;2201;51.100;6.814;2023-02-22T04:46:23;6.30;98.20
4374;DHT22;2201;51.100;6.814;2023-02-22T04:48:51;6.30;98.20
4374;DHT22;2201;51.100;6.814;2023-02-22T04:51:18;6.30;98.20
4374;DHT22;2201;51.100;6.814;2023-02-22T04:53:46;6.30;98.20
4374;DHT22;2201;51.100;6.814;2023-02-22T04:56:16;6.30;98.20
4374;DHT22;2201;51.100;6.814;2023-02-22T04:58:45;6.30;98.20
4374;DHT22;2201;51.100;6.814;2023-02-22T05:01:13;6.30;98.20
4374;DHT22;2201;51.100;6.814;2023-02-22T05:03:41;6.30;98.20
4374;DHT22;2201;51.100;6.814;2023-02-22T05:06:09;6.30;98.20
4374;DHT22;2201;51.100;6.814;2023-02-22T05:08:38;6.20;98.20
4374;DHT22;2201;51.100;6.814;2023-02-22T05:11:05;6.30;98.20
4374;DHT22;2201;51.100;6.814;2023-02-22T05:13:33;6.30;98.20
4374;DHT22;2201;51.100;6.814;2023-02-22T05:16:01;6.30;98.20
4374;DHT22;2201;51.100;6.814;2023-02-22T05:18:29;6.30;98.20
4374;DHT22;2201;51.100;6.814;2023-02-22T05:20:56;6.30;98.20
4374;DHT22;2201;51.100;6.814;2023-02-22T05:23:24;6.30;98.20
4374;DHT22;2201;51.100;6.814;2023-02-22T05:25:52;6.30;98.20
4374;DHT22;2201;51.100;6.814;2023-02-22T05:28:20;6.30;98.20
4374;DHT22;2201;51.100;6.814;2023-02-22T05:30:47;6.30;98.20
4374;DHT22;2201;51.100;6.814;2023-02-22T05:33:16;6.30;98.20
4374;DHT22;2201;51.100;6.814;2023-02-22T05:35:44;6.30;98.20
4374;DHT22;2201;51.100;6.814;2023-02-22T05:38:12;6.30;98.20
4374;DHT22;2201;51.100;6.814;2023-02-22T05:40:40;6.20;98.20
4374;DHT22;2201;51.100;6.814;2023-02-22T05:43:08;6.20;98.20
4374;DHT22;2201;51.100;6.814;2023-02-22T05:45:35;6.10;98.20
4374;DHT22;2201;51.100;6.814;2023-02-22T05:48:03;6.10;98.20
4374;DHT22;2201;51.100;6.814;2023-02-22T05:50:33;6.00;98.20
4374;DHT22;2201;51.100;6.814;2023-02-22T05:53:00;6.00;98.20
4374;DHT22;2201;51.100;6.814;2023-02-22T05:55:29;5.90;98.20
4374;DHT22;2201;51.100;6.814;2023-02-22T05:57:57;5.90;98.20
4374;DHT22;2201;51.100;6.814;2023-02-22T06:00:28;5.90;98.20
4374;DHT22;2201;51.100;6.814;2023-02-22T06:02:56;5.90;98.20
4374;DHT22;2201;51.100;6.814;2023-02-22T06:05:24;5.80;98.20
4374;DHT22;2201;51.100;6.814;2023-02-22T06:07:54;5.80;98.20
4374;DHT22;2201;51.100;6.814;2023-02-22T06:10:21;5.80;98.20
4374;DHT22;2201;51.100;6.814;2023-02-22T06:12:49;5.80;98.20
4374;DHT22;2201;51.100;6.814;2023-02-22T06:15:18;5.70;98.20
4374;DHT22;2201;51.100;6.814;2023-02-22T06:17:47;5.70;98.20
4374;DHT22;2201;51.100;6.814;2023-02-22T06:20:17;5.70;98.20
4374;DHT22;2201;51.100;6.814;2023-02-22T06:22:46;5.70;98.20
4374;DHT22;2201;51.100;6.814;2023-02-22T06:25:17;5.70;98.20
4374;DHT22;2201;51.100;6.814;2023-02-22T06:27:51;5.70;98.20
4374;DHT22;2201;51.100;6.814;2023-02-22T06:34:12;5.70;98.20
4374;DHT22;2201;51.100;6.814;2023-02-22T06:40:06;5.60;98.20
4374;DHT22;2201;51.100;6.814;2023-02-22T06:42:37;5.60;98.20
4374;DHT22;2201;51.100;6.814;2023-02-22T06:45:07;5.60;98.20
4374;DHT22;2201;51.100;6.814;2023-02-22T06:47:38;5.60;98.20
4374;DHT22;2201;51.100;6.814;2023-02-22T06:50:07;5.60;98.20
4374;DHT22;2201;51.100;6.814;2023-02-22T06:52:41;5.60;98.20
4374;DHT22;2201;51.100;6.814;2023-02-22T06:55:09;5.60;98.20
4374;DHT22;2201;51.100;6.814;2023-02-22T06:57:39;5.60;98.20
4374;DHT22;2201;51.100;6.814;2023-02-22T07:00:09;5.60;98.20
4374;DHT22;2201;51.100;6.814;2023-02-22T07:02:37;5.60;98.20
4374;DHT22;2201;51.100;6.814;2023-02-22T07:05:05;5.60;98.20
4374;DHT22;2201;51.100;6.814;2023-02-22T07:07:33;5.60;98.20
4374;DHT22;2201;51.100;6.814;2023-02-22T07:10:00;5.60;98.20
4374;DHT22;2201;51.100;6.814;2023-02-22T07:12:28;5.60;98.20
4374;DHT22;2201;51.100;6.814;2023-02-22T07:14:58;5.70;98.20
4374;DHT22;2201;51.100;6.814;2023-02-22T07:17:26;5.70;98.20
4374;DHT22;2201;51.100;6.814;2023-02-22T07:19:55;5.70;98.20
4374;DHT22;2201;51.100;6.814;2023-02-22T07:22:22;5.80;98.20
4374;DHT22;2201;51.100;6.814;2023-02-22T07:24:50;5.80;98.20
4374;DHT22;2201;51.100;6.814;2023-02-22T07:27:18;5.90;98.20
4374;DHT22;2201;51.100;6.814;2023-02-22T07:29:45;5.90;98.20
4374;DHT22;2201;51.100;6.814;2023-02-22T07:32:14;6.00;98.20
4374;DHT22;2201;51.100;6.814;2023-02-22T07:34:42;6.00;98.20
4374;DHT22;2201;51.100;6.814;2023-02-22T07:37:10;6.10;98.20
4374;DHT22;2201;51.100;6.814;2023-02-22T07:39:37;6.20;98.20
4374;DHT22;2201;51.100;6.814;2023-02-22T07:42:08;6.30;98.20
4374;DHT22;2201;51.100;6.814;2023-02-22T07:44:35;6.30;98.20
4374;DHT22;2201;51.100;6.814;2023-02-22T07:47:04;6.40;98.20
4374;DHT22;2201;51.100;6.814;2023-02-22T07:49:33;6.50;98.20
4374;DHT22;2201;51.100;6.814;2023-02-22T07:52:00;6.60;98.20
4374;DHT22;2201;51.100;6.814;2023-02-22T07:54:28;6.70;98.20
4374;DHT22;2201;51.100;6.814;2023-02-22T07:56:56;6.80;98.20
4374;DHT22;2201;51.100;6.814;2023-02-22T07:59:24;6.90;98.20
4374;DHT22;2201;51.100;6.814;2023-02-22T08:01:51;7.10;98.20
4374;DHT22;2201;51.100;6.814;2023-02-22T08:04:19;7.20;98.20
4374;DHT22;2201;51.100;6.814;2023-02-22T08:06:48;7.30;98.20
4374;DHT22;2201;51.100;6.814;2023-02-22T08:09:16;7.50;98.20
4374;DHT22;2201;51.100;6.814;2023-02-22T08:11:43;7.60;98.20
4374;DHT22;2201;51.100;6.814;2023-02-22T08:14:15;7.70;98.20
4374;DHT22;2201;51.100;6.814;2023-02-22T08:16:42;7.80;98.20
4374;DHT22;2201;51.100;6.814;2023-02-22T08:19:10;7.90;98.20
4374;DHT22;2201;51.100;6.814;2023-02-22T08:21:38;7.90;98.20
4374;DHT22;2201;51.100;6.814;2023-02-22T08:24:08;8.00;98.20
4374;DHT22;2201;51.100;6.814;2023-02-22T08:26:36;8.10;98.20
4374;DHT22;2201;51.100;6.814;2023-02-22T08:29:03;8.20;98.20
4374;DHT22;2201;51.100;6.814;2023-02-22T08:31:31;8.30;98.20
4374;DHT22;2201;51.100;6.814;2023-02-22T08:33:59;8.40;98.20
4374;DHT22;2201;51.100;6.814;2023-02-22T08:36:27;8.40;98.20
4374;DHT22;2201;51.100;6.814;2023-02-22T08:38:56;8.60;98.20
4374;DHT22;2201;51.100;6.814;2023-02-22T08:41:25;8.70;98.20
4374;DHT22;2201;51.100;6.814;2023-02-22T08:43:53;8.80;98.20
4374;DHT22;2201;51.100;6.814;2023-02-22T08:46:21;8.90;98.20
4374;DHT22;2201;51.100;6.814;2023-02-22T08:48:49;9.00;98.20
4374;DHT22;2201;51.100;6.814;2023-02-22T08:51:17;9.00;98.20
4374;DHT22;2201;51.100;6.814;2023-02-22T08:53:44;9.10;98.20
4374;DHT22;2201;51.100;6.814;2023-02-22T08:56:12;9.10;98.20
4374;DHT22;2201;51.100;6.814;2023-02-22T08:58:42;9.10;98.20
4374;DHT22;2201;51.100;6.814;2023-02-22T09:01:09;9.20;98.20
4374;DHT22;2201;51.100;6.814;2023-02-22T09:03:38;9.20;98.20
4374;DHT22;2201;51.100;6.814;2023-02-22T09:06:06;9.30;98.20
4374;DHT22;2201;51.100;6.814;2023-02-22T09:08:34;9.40;98.20
4374;DHT22;2201;51.100;6.814;2023-02-22T09:11:02;9.50;98.20
4374;DHT22;2201;51.100;6.814;2023-02-22T09:13:29;9.60;98.20
4374;DHT22;2201;51.100;6.814;2023-02-22T09:15:58;9.60;98.20
4374;DHT22;2201;51.100;6.814;2023-02-22T09:18:27;9.70;98.20
4374;DHT22;2201;51.100;6.814;2023-02-22T09:20:55;9.80;98.20
4374;DHT22;2201;51.100;6.814;2023-02-22T09:23:22;9.90;98.20
4374;DHT22;2201;51.100;6.814;2023-02-22T09:25:51;10.00;98.20
4374;DHT22;2201;51.100;6.814;2023-02-22T09:28:18;10.10;98.20
4374;DHT22;2201;51.100;6.814;2023-02-22T09:30:47;10.20;98.20
4374;DHT22;2201;51.100;6.814;2023-02-22T09:33:18;10.30;98.20
4374;DHT22;2201;51.100;6.814;2023-02-22T09:35:47;10.40;98.20
4374;DHT22;2201;51.100;6.814;2023-02-22T09:38:18;10.50;98.20
4374;DHT22;2201;51.100;6.814;2023-02-22T09:40:50;10.70;98.20
4374;DHT22;2201;51.100;6.814;2023-02-22T09:43:29;10.70;98.20
4374;DHT22;2201;51.100;6.814;2023-02-22T09:46:17;10.90;98.20
4374;DHT22;2201;51.100;6.814;2023-02-22T09:48:59;11.00;98.20
4374;DHT22;2201;51.100;6.814;2023-02-22T09:51:47;11.00;98.20
4374;DHT22;2201;51.100;6.814;2023-02-22T09:54:22;11.00;98.20
4374;DHT22;2201;51.100;6.814;2023-02-22T09:56:54;11.00;98.20
4374;DHT22;2201;51.100;6.814;2023-02-22T09:59:28;11.00;98.20
4374;DHT22;2201;51.100;6.814;2023-02-22T10:02:01;11.00;98.20
4374;DHT22;2201;51.100;6.814;2023-02-22T10:04:40;11.00;98.20
4374;DHT22;2201;51.100;6.814;2023-02-22T10:07:17;11.10;98.20
4374;DHT22;2201;51.100;6.814;2023-02-22T10:09:48;11.20;98.20
4374;DHT22;2201;51.100;6.814;2023-02-22T10:12:24;11.30;98.20
4374;DHT22;2201;51.100;6.814;2023-02-22T10:15:16;11.40;98.20
4374;DHT22;2201;51.100;6.814;2023-02-22T10:17:52;11.60;98.20
4374;DHT22;2201;51.100;6.814;2023-02-22T10:20:38;11.60;98.20
4374;DHT22;2201;51.100;6.814;2023-02-22T10:23:15;11.70;98.20
4374;DHT22;2201;51.100;6.814;2023-02-22T10:25:47;11.80;98.20
4374;DHT22;2201;51.100;6.814;2023-02-22T10:28:19;11.80;98.20
4374;DHT22;2201;51.100;6.814;2023-02-22T10:30:51;12.00;98.20
4374;DHT22;2201;51.100;6.814;2023-02-22T10:33:23;12.10;98.20
4374;DHT22;2201;51.100;6.814;2023-02-22T10:35:54;12.20;98.20
4374;DHT22;2201;51.100;6.814;2023-02-22T10:38:23;12.30;98.20
4374;DHT22;2201;51.100;6.814;2023-02-22T10:40:55;12.50;98.20
4374;DHT22;2201;51.100;6.814;2023-02-22T10:43:24;12.70;98.20
4374;DHT22;2201;51.100;6.814;2023-02-22T10:45:54;12.70;98.20
4374;DHT22;2201;51.100;6.814;2023-02-22T10:48:25;12.70;98.20
4374;DHT22;2201;51.100;6.814;2023-02-22T10:50:59;12.90;98.20
4374;DHT22;2201;51.100;6.814;2023-02-22T10:53:28;12.90;98.20
4374;DHT22;2201;51.100;6.814;2023-02-22T10:56:07;13.00;98.20
4374;DHT22;2201;51.100;6.814;2023-02-22T10:58:46;13.00;98.20
4374;DHT22;2201;51.100;6.814;2023-02-22T11:01:24;13.20;98.20
4374;DHT22;2201;51.100;6.814;2023-02-22T11:04:03;13.40;98.20
4374;DHT22;2201;51.100;6.814;2023-02-22T11:06:34;13.60;98.20
4374;DHT22;2201;51.100;6.814;2023-02-22T11:09:08;13.80;98.20
4374;DHT22;2201;51.100;6.814;2023-02-22T11:11:40;13.80;98.20
4374;DHT22;2201;51.100;6.814;2023-02-22T11:14:09;14.00;98.20
4374;DHT22;2201;51.100;6.814;2023-02-22T11:16:39;14.00;98.20
4374;DHT22;2201;51.100;6.814;2023-02-22T11:19:17;14.20;98.20
4374;DHT22;2201;51.100;6.814;2023-02-22T11:21:48;14.30;98.20
4374;DHT22;2201;51.100;6.814;2023-02-22T11:24:19;14.50;98.20
4374;DHT22;2201;51.100;6.814;2023-02-22T11:26:53;14.60;98.20
4374;DHT22;2201;51.100;6.814;2023-02-22T11:29:26;14.70;98.20
4374;DHT22;2201;51.100;6.814;2023-02-22T11:31:56;14.90;98.20
4374;DHT22;2201;51.100;6.814;2023-02-22T11:34:31;15.20;98.20
4374;DHT22;2201;51.100;6.814;2023-02-22T11:40:09;15.30;98.20
4374;DHT22;2201;51.100;6.814;2023-02-22T11:42:38;15.50;97.70
4374;DHT22;2201;51.100;6.814;2023-02-22T11:45:11;15.60;98.20
4374;DHT22;2201;51.100;6.814;2023-02-22T11:47:52;15.80;97.20
4374;DHT22;2201;51.100;6.814;2023-02-22T11:50:30;15.80;95.40
4374;DHT22;2201;51.100;6.814;2023-02-22T11:53:13;15.70;96.10
4374;DHT22;2201;51.100;6.814;2023-02-22T11:55:52;15.80;97.80
4374;DHT22;2201;51.100;6.814;2023-02-22T11:58:33;16.00;97.30
4374;DHT22;2201;51.100;6.814;2023-02-22T12:01:07;16.10;96.20
4374;DHT22;2201;51.100;6.814;2023-02-22T12:04:01;16.30;96.40
4374;DHT22;2201;51.100;6.814;2023-02-22T12:06:37;16.50;96.40
4374;DHT22;2201;51.100;6.814;2023-02-22T12:09:12;16.60;95.40
4374;DHT22;2201;51.100;6.814;2023-02-22T12:11:48;16.70;95.10
4374;DHT22;2201;51.100;6.814;2023-02-22T12:14:25;16.70;94.00
4374;DHT22;2201;51.100;6.814;2023-02-22T12:17:14;16.70;94.40
4374;DHT22;2201;51.100;6.814;2023-02-22T12:19:48;16.60;93.10
4374;DHT22;2201;51.100;6.814;2023-02-22T12:22:20;16.60;94.30
4374;DHT22;2201;51.100;6.814;2023-02-22T12:24:54;16.60;94.70
4374;DHT22;2201;51.100;6.814;2023-02-22T12:27:29;16.60;94.90
4374;DHT22;2201;51.100;6.814;2023-02-22T12:30:03;16.60;94.20
4374;DHT22;2201;51.100;6.814;2023-02-22T12:32:36;16.50;93.30
4374;DHT22;2201;51.100;6.814;2023-02-22T12:35:13;16.40;94.80
4374;DHT22;2201;51.100;6.814;2023-02-22T12:37:50;16.40;95.60
4374;DHT22;2201;51.100;6.814;2023-02-22T12:40:23;16.50;95.60
4374;DHT22;2201;51.100;6.814;2023-02-22T12:42:58;16.60;94.90
4374;DHT22;2201;51.100;6.814;2023-02-22T12:45:31;16.70;94.80
4374;DHT22;2201;51.100;6.814;2023-02-22T12:48:12;16.80;94.70
4374;DHT22;2201;51.100;6.814;2023-02-22T12:50:44;16.90;92.70
4374;DHT22;2201;51.100;6.814;2023-02-22T12:53:17;16.90;94.10
4374;DHT22;2201;51.100;6.814;2023-02-22T12:55:51;17.00;94.10
4374;DHT22;2201;51.100;6.814;2023-02-22T12:58:28;17.00;94.00
4374;DHT22;2201;51.100;6.814;2023-02-22T13:00:59;17.00;93.00
4374;DHT22;2201;51.100;6.814;2023-02-22T13:03:34;17.00;94.20
4374;DHT22;2201;51.100;6.814;2023-02-22T13:09:07;17.00;90.80
4374;DHT22;2201;51.100;6.814;2023-02-22T13:11:44;16.80;91.80
4374;DHT22;2201;51.100;6.814;2023-02-22T13:14:33;16.70;93.80
4374;DHT22;2201;51.100;6.814;2023-02-22T13:17:11;16.70;93.50
4374;DHT22;2201;51.100;6.814;2023-02-22T13:19:48;16.60;94.40
4374;DHT22;2201;51.100;6.814;2023-02-22T13:22:22;16.70;94.30
4374;DHT22;2201;51.100;6.814;2023-02-22T13:25:05;16.70;94.90
4374;DHT22;2201;51.100;6.814;2023-02-22T13:27:39;16.80;93.50
4374;DHT22;2201;51.100;6.814;2023-02-22T13:30:23;16.90;94.50
4374;DHT22;2201;51.100;6.814;2023-02-22T13:33:16;16.90;93.80
4374;DHT22;2201;51.100;6.814;2023-02-22T13:36:03;17.00;95.70
4374;DHT22;2201;51.100;6.814;2023-02-22T13:38:58;17.10;94.40
4374;DHT22;2201;51.100;6.814;2023-02-22T13:41:42;17.00;92.30
4374;DHT22;2201;51.100;6.814;2023-02-22T13:44:43;17.00;91.70
4374;DHT22;2201;51.100;6.814;2023-02-22T13:47:49;16.90;92.20
4374;DHT22;2201;51.100;6.814;2023-02-22T13:53:13;16.90;93.00
4374;DHT22;2201;51.100;6.814;2023-02-22T13:55:46;17.00;92.30
4374;DHT22;2201;51.100;6.814;2023-02-22T13:58:18;17.00;91.80
4374;DHT22;2201;51.100;6.814;2023-02-22T14:00:48;17.00;91.40
4374;DHT22;2201;51.100;6.814;2023-02-22T14:03:35;16.90;92.00
4374;DHT22;2201;51.100;6.814;2023-02-22T14:06:06;16.80;91.40
4374;DHT22;2201;51.100;6.814;2023-02-22T14:08:44;16.70;91.50
4374;DHT22;2201;51.100;6.814;2023-02-22T14:14:20;16.50;91.90
4374;DHT22;2201;51.100;6.814;2023-02-22T14:17:20;16.40;92.20
4374;DHT22;2201;51.100;6.814;2023-02-22T14:20:22;16.30;92.20
4374;DHT22;2201;51.100;6.814;2023-02-22T14:22:56;16.40;93.10
4374;DHT22;2201;51.100;6.814;2023-02-22T14:25:33;16.40;93.10
4374;DHT22;2201;51.100;6.814;2023-02-22T14:28:02;16.50;93.50
4374;DHT22;2201;51.100;6.814;2023-02-22T14:30:31;16.50;93.70
4374;DHT22;2201;51.100;6.814;2023-02-22T14:33:00;16.50;93.40
4374;DHT22;2201;51.100;6.814;2023-02-22T14:35:38;16.40;93.30
4374;DHT22;2201;51.100;6.814;2023-02-22T14:38:14;16.50;94.20
4374;DHT22;2201;51.100;6.814;2023-02-22T14:40:44;16.50;95.00
4374;DHT22;2201;51.100;6.814;2023-02-22T14:43:18;16.60;95.00
4374;DHT22;2201;51.100;6.814;2023-02-22T14:45:50;16.60;94.80
4374;DHT22;2201;51.100;6.814;2023-02-22T14:48:23;16.60;94.20
4374;DHT22;2201;51.100;6.814;2023-02-22T14:51:00;16.60;94.90
4374;DHT22;2201;51.100;6.814;2023-02-22T14:53:35;16.60;95.40
4374;DHT22;2201;51.100;6.814;2023-02-22T14:56:06;16.60;96.10
4374;DHT22;2201;51.100;6.814;2023-02-22T14:58:40;16.60;95.00
4374;DHT22;2201;51.100;6.814;2023-02-22T15:01:22;16.50;94.80
4374;DHT22;2201;51.100;6.814;2023-02-22T15:03:50;16.50;95.20
4374;DHT22;2201;51.100;6.814;2023-02-22T15:06:27;16.50;96.00
4374;DHT22;2201;51.100;6.814;2023-02-22T15:09:12;16.40;95.60
4374;DHT22;2201;51.100;6.814;2023-02-22T15:11:49;16.40;96.20
4374;DHT22;2201;51.100;6.814;2023-02-22T15:14:19;16.40;96.50
4374;DHT22;2201;51.100;6.814;2023-02-22T15:16:49;16.30;96.70
4374;DHT22;2201;51.100;6.814;2023-02-22T15:19:22;16.30;96.20
4374;DHT22;2201;51.100;6.814;2023-02-22T15:21:54;16.20;96.30
4374;DHT22;2201;51.100;6.814;2023-02-22T15:24:24;16.10;97.50
4374;DHT22;2201;51.100;6.814;2023-02-22T15:26:52;16.10;98.00
4374;DHT22;2201;51.100;6.814;2023-02-22T15:29:22;16.10;98.10
4374;DHT22;2201;51.100;6.814;2023-02-22T15:31:50;16.00;98.20
4374;DHT22;2201;51.100;6.814;2023-02-22T15:34:21;16.00;98.20
4374;DHT22;2201;51.100;6.814;2023-02-22T15:36:54;15.90;98.20
4374;DHT22;2201;51.100;6.814;2023-02-22T15:39:25;15.80;98.20
4374;DHT22;2201;51.100;6.814;2023-02-22T15:42:07;15.70;98.20
4374;DHT22;2201;51.100;6.814;2023-02-22T15:44:37;15.70;98.20
4374;DHT22;2201;51.100;6.814;2023-02-22T15:47:05;15.60;98.20
4374;DHT22;2201;51.100;6.814;2023-02-22T15:49:33;15.60;98.20
4374;DHT22;2201;51.100;6.814;2023-02-22T15:52:18;15.50;98.20
4374;DHT22;2201;51.100;6.814;2023-02-22T15:54:48;15.30;98.20
4374;DHT22;2201;51.100;6.814;2023-02-22T15:57:18;15.30;98.20
4374;DHT22;2201;51.100;6.814;2023-02-22T15:59:49;15.20;98.20
4374;DHT22;2201;51.100;6.814;2023-02-22T16:02:29;15.10;98.20
4374;DHT22;2201;51.100;6.814;2023-02-22T16:05:00;15.10;98.20
4374;DHT22;2201;51.100;6.814;2023-02-22T16:07:31;15.00;98.20
4374;DHT22;2201;51.100;6.814;2023-02-22T16:09:59;15.00;98.20
4374;DHT22;2201;51.100;6.814;2023-02-22T16:12:34;14.90;98.20
4374;DHT22;2201;51.100;6.814;2023-02-22T16:15:02;14.90;98.20
4374;DHT22;2201;51.100;6.814;2023-02-22T16:17:33;14.80;98.20
4374;DHT22;2201;51.100;6.814;2023-02-22T16:22:47;14.70;98.20
4374;DHT22;2201;51.100;6.814;2023-02-22T16:25:24;14.60;98.20
4374;DHT22;2201;51.100;6.814;2023-02-22T16:27:55;14.40;98.20
4374;DHT22;2201;51.100;6.814;2023-02-22T16:30:28;14.30;98.20
4374;DHT22;2201;51.100;6.814;2023-02-22T16:32:57;14.20;98.20
4374;DHT22;2201;51.100;6.814;2023-02-22T16:35:27;14.10;98.20
4374;DHT22;2201;51.100;6.814;2023-02-22T16:37:58;14.10;98.20
4374;DHT22;2201;51.100;6.814;2023-02-22T16:40:29;14.00;98.20
4374;DHT22;2201;51.100;6.814;2023-02-22T16:43:01;13.90;98.20
4374;DHT22;2201;51.100;6.814;2023-02-22T16:45:30;13.90;98.20
4374;DHT22;2201;51.100;6.814;2023-02-22T16:47:59;13.80;98.20
4374;DHT22;2201;51.100;6.814;2023-02-22T16:50:29;13.80;98.20
4374;DHT22;2201;51.100;6.814;2023-02-22T16:53:03;13.70;98.20
4374;DHT22;2201;51.100;6.814;2023-02-22T16:55:30;13.70;98.20
4374;DHT22;2201;51.100;6.814;2023-02-22T16:57:58;13.60;98.20
4374;DHT22;2201;51.100;6.814;2023-02-22T17:00:27;13.60;98.20
4374;DHT22;2201;51.100;6.814;2023-02-22T17:02:57;13.60;98.20
4374;DHT22;2201;51.100;6.814;2023-02-22T17:05:29;13.50;98.20